UTY3136 YPAD-YOLD
Flight info
| Callsign | UTY3136 |
|---|---|
| Flight time | 0h 52m |
| Altitude | 32000 |
| Route | AREPA J58 WHA |
| Aircraft | E190/M-SDGHIRWYZ/EB1 |
Departure
| Time | 2026-05-04 05:48 |
|---|---|
| Airport | Adelaide International Airport (YPAD) |
Arrival
| Time | 2026-05-04 06:40 |
|---|---|
| Airport | Olympic Dam Airport (YOLD) |
| Time | Latitude | Longitude | Altitude | Speed | Heading |
|---|---|---|---|---|---|
| 2026-05-04 05:26 | -34.94131 | 138.53551 | 26 ft | 0 kts | 320° |
| 2026-05-04 05:41 | -34.94132 | 138.53551 | 26 ft | 1 kts | 320° |
| 2026-05-04 05:41 | -34.94149 | 138.53569 | 26 ft | 4 kts | 318° |
| 2026-05-04 05:41 | -34.94168 | 138.53592 | 30 ft | 4 kts | 310° |
| 2026-05-04 05:41 | -34.94183 | 138.53619 | 28 ft | 4 kts | 283° |
| 2026-05-04 05:42 | -34.94185 | 138.53631 | 24 ft | 1 kts | 270° |
| 2026-05-04 05:45 | -34.94238 | 138.53724 | 23 ft | 13 kts | 61° |
| 2026-05-04 05:45 | -34.94181 | 138.53816 | 23 ft | 13 kts | 50° |
| 2026-05-04 05:47 | -34.94320 | 138.53954 | 27 ft | 84 kts | 231° |
| 2026-05-04 05:47 | -34.94846 | 138.53181 | 46 ft | 148 kts | 231° |
| 2026-05-04 05:47 | -34.95578 | 138.52141 | 582 ft | 178 kts | 232° |
| 2026-05-04 05:48 | -34.96475 | 138.50831 | 1031 ft | 221 kts | 232° |
| 2026-05-04 05:48 | -34.97525 | 138.49284 | 1857 ft | 249 kts | 231° |
| 2026-05-04 05:48 | -34.98641 | 138.47661 | 3367 ft | 252 kts | 230° |
| 2026-05-04 05:48 | -34.99824 | 138.45938 | 4144 ft | 287 kts | 231° |
| 2026-05-04 05:49 | -35.01209 | 138.43915 | 4196 ft | 328 kts | 231° |
| 2026-05-04 05:49 | -35.02659 | 138.41809 | 4141 ft | 316 kts | 230° |
| 2026-05-04 05:49 | -35.03957 | 138.39718 | 3755 ft | 302 kts | 240° |
| 2026-05-04 05:49 | -35.04551 | 138.37314 | 3340 ft | 295 kts | 264° |
| 2026-05-04 05:51 | -34.94486 | 138.28824 | 7732 ft | 276 kts | 332° |
| 2026-05-04 05:51 | -34.92726 | 138.27847 | 8342 ft | 278 kts | 329° |
| 2026-05-04 05:52 | -34.91005 | 138.26809 | 8938 ft | 280 kts | 328° |
| 2026-05-04 05:52 | -34.89269 | 138.25697 | 9546 ft | 283 kts | 327° |
| 2026-05-04 05:52 | -34.87523 | 138.24555 | 10163 ft | 286 kts | 326° |
| 2026-05-04 05:52 | -34.85729 | 138.23355 | 10438 ft | 301 kts | 327° |
| 2026-05-04 05:53 | -34.83852 | 138.22107 | 10776 ft | 313 kts | 327° |
| 2026-05-04 05:54 | -34.69525 | 138.12534 | 14220 ft | 351 kts | 326° |
| 2026-05-04 05:55 | -34.67357 | 138.11110 | 14706 ft | 356 kts | 327° |
| 2026-05-04 05:55 | -34.65161 | 138.09680 | 15214 ft | 359 kts | 326° |
| 2026-05-04 05:55 | -34.62947 | 138.08233 | 15709 ft | 363 kts | 326° |
| 2026-05-04 05:55 | -34.60701 | 138.06777 | 16204 ft | 367 kts | 326° |
| 2026-05-04 05:56 | -34.58433 | 138.05312 | 16691 ft | 370 kts | 326° |
| 2026-05-04 05:56 | -34.56170 | 138.03862 | 17174 ft | 374 kts | 326° |
| 2026-05-04 05:56 | -34.53847 | 138.02382 | 17673 ft | 378 kts | 326° |
| 2026-05-04 05:56 | -34.51503 | 138.00886 | 18140 ft | 382 kts | 327° |
| 2026-05-04 05:57 | -34.49132 | 137.99377 | 18604 ft | 385 kts | 327° |
| 2026-05-04 05:57 | -34.46750 | 137.97867 | 19091 ft | 388 kts | 327° |
| 2026-05-04 05:57 | -34.44344 | 137.96354 | 19610 ft | 390 kts | 327° |
| 2026-05-04 05:57 | -34.41926 | 137.94844 | 20132 ft | 392 kts | 327° |
| 2026-05-04 05:58 | -34.39491 | 137.93320 | 20648 ft | 395 kts | 327° |
| 2026-05-04 05:58 | -34.37066 | 137.91816 | 21126 ft | 397 kts | 327° |
| 2026-05-04 05:58 | -34.34586 | 137.90292 | 21574 ft | 400 kts | 327° |
| 2026-05-04 05:58 | -34.32075 | 137.88763 | 22022 ft | 402 kts | 328° |
| 2026-05-04 05:59 | -34.29563 | 137.87242 | 22447 ft | 404 kts | 328° |
| 2026-05-04 05:59 | -34.27064 | 137.85738 | 22862 ft | 406 kts | 328° |
| 2026-05-04 05:59 | -34.24505 | 137.84207 | 23277 ft | 409 kts | 328° |
| 2026-05-04 05:59 | -34.21940 | 137.82679 | 23677 ft | 411 kts | 328° |
| 2026-05-04 06:00 | -34.19368 | 137.81156 | 24015 ft | 413 kts | 328° |
| 2026-05-04 06:00 | -34.16816 | 137.79651 | 24318 ft | 415 kts | 328° |
| 2026-05-04 06:00 | -34.14215 | 137.78124 | 24694 ft | 415 kts | 328° |
| 2026-05-04 06:00 | -34.11606 | 137.76597 | 25060 ft | 417 kts | 329° |
| 2026-05-04 06:01 | -34.08986 | 137.75073 | 25437 ft | 417 kts | 329° |
| 2026-05-04 06:01 | -34.06288 | 137.73815 | 25765 ft | 427 kts | 341° |
| 2026-05-04 06:03 | -33.85579 | 137.69314 | 28070 ft | 436 kts | 344° |
| 2026-05-04 06:03 | -33.82582 | 137.68667 | 28378 ft | 436 kts | 345° |
| 2026-05-04 06:05 | -33.61519 | 137.64123 | 30271 ft | 443 kts | 345° |
| 2026-05-04 06:05 | -33.55455 | 137.62823 | 30721 ft | 445 kts | 345° |
| 2026-05-04 06:05 | -33.52401 | 137.62171 | 30988 ft | 444 kts | 345° |
| 2026-05-04 06:06 | -33.49388 | 137.61530 | 31255 ft | 443 kts | 345° |
| 2026-05-04 06:06 | -33.46355 | 137.60883 | 31527 ft | 442 kts | 345° |
| 2026-05-04 06:06 | -33.44351 | 137.60457 | 31705 ft | 441 kts | 345° |
| 2026-05-04 06:06 | -33.40314 | 137.59597 | 32083 ft | 438 kts | 345° |
| 2026-05-04 06:07 | -33.37302 | 137.58955 | 32142 ft | 442 kts | 346° |
| 2026-05-04 06:07 | -33.32220 | 137.57869 | 32150 ft | 450 kts | 346° |
| 2026-05-04 06:08 | -33.25986 | 137.56541 | 32176 ft | 457 kts | 346° |
| 2026-05-04 06:08 | -33.19741 | 137.55213 | 32173 ft | 460 kts | 346° |
| 2026-05-04 06:09 | -33.13435 | 137.53875 | 32094 ft | 458 kts | 346° |
| 2026-05-04 06:11 | -32.88128 | 137.49758 | 32093 ft | 460 kts | 349° |
| 2026-05-04 06:13 | -32.62720 | 137.46190 | 32099 ft | 459 kts | 349° |
| 2026-05-04 06:14 | -32.40527 | 137.43083 | 32098 ft | 459 kts | 349° |
| 2026-05-04 06:15 | -32.34175 | 137.42199 | 32101 ft | 459 kts | 349° |
| 2026-05-04 06:15 | -32.27852 | 137.41322 | 32102 ft | 459 kts | 349° |
| 2026-05-04 06:16 | -32.21499 | 137.40435 | 32107 ft | 459 kts | 349° |
| 2026-05-04 06:16 | -32.15136 | 137.39549 | 32107 ft | 459 kts | 349° |
| 2026-05-04 06:17 | -32.08821 | 137.38671 | 32099 ft | 458 kts | 349° |
| 2026-05-04 06:17 | -32.02474 | 137.37790 | 32112 ft | 458 kts | 349° |
| 2026-05-04 06:18 | -31.96135 | 137.36912 | 32110 ft | 458 kts | 349° |
| 2026-05-04 06:18 | -31.92968 | 137.36476 | 31768 ft | 454 kts | 349° |
| 2026-05-04 06:20 | -31.72411 | 137.33655 | 28078 ft | 414 kts | 350° |
| 2026-05-04 06:20 | -31.69527 | 137.33260 | 27521 ft | 418 kts | 350° |
| 2026-05-04 06:21 | -31.57853 | 137.31670 | 25267 ft | 420 kts | 351° |
| 2026-05-04 06:21 | -31.54986 | 137.31277 | 24716 ft | 418 kts | 351° |
| 2026-05-04 06:22 | -31.52095 | 137.30883 | 24168 ft | 416 kts | 351° |
| 2026-05-04 06:22 | -31.49223 | 137.30491 | 23589 ft | 415 kts | 351° |
| 2026-05-04 06:25 | -31.14202 | 137.25749 | 16868 ft | 366 kts | 350° |
| 2026-05-04 06:25 | -31.11676 | 137.25408 | 16390 ft | 364 kts | 350° |
| 2026-05-04 06:26 | -31.09170 | 137.25071 | 15906 ft | 361 kts | 350° |
| 2026-05-04 06:26 | -31.06699 | 137.24739 | 15424 ft | 359 kts | 350° |
| 2026-05-04 06:26 | -31.04223 | 137.24407 | 14948 ft | 356 kts | 350° |
| 2026-05-04 06:26 | -31.01774 | 137.24078 | 14482 ft | 352 kts | 350° |
| 2026-05-04 06:27 | -30.92335 | 137.22811 | 12647 ft | 329 kts | 350° |
| 2026-05-04 06:28 | -30.90080 | 137.22509 | 12223 ft | 323 kts | 350° |
| 2026-05-04 06:28 | -30.87884 | 137.22214 | 11796 ft | 319 kts | 350° |
| 2026-05-04 06:28 | -30.85684 | 137.21920 | 11372 ft | 316 kts | 350° |
| 2026-05-04 06:28 | -30.83509 | 137.21632 | 10952 ft | 312 kts | 350° |
| 2026-05-04 06:29 | -30.81359 | 137.21343 | 10467 ft | 311 kts | 351° |
| 2026-05-04 06:29 | -30.79192 | 137.21051 | 9974 ft | 311 kts | 351° |
| 2026-05-04 06:29 | -30.77079 | 137.20772 | 9584 ft | 306 kts | 350° |
| 2026-05-04 06:29 | -30.74977 | 137.20490 | 9179 ft | 302 kts | 351° |
| 2026-05-04 06:30 | -30.72899 | 137.20214 | 8779 ft | 299 kts | 351° |
| 2026-05-04 06:30 | -30.70843 | 137.19935 | 8387 ft | 296 kts | 350° |
| 2026-05-04 06:30 | -30.68803 | 137.19664 | 7991 ft | 293 kts | 351° |
| 2026-05-04 06:30 | -30.66786 | 137.19395 | 7605 ft | 291 kts | 350° |
| 2026-05-04 06:31 | -30.64780 | 137.19126 | 7221 ft | 289 kts | 351° |
| 2026-05-04 06:31 | -30.62807 | 137.18866 | 6840 ft | 287 kts | 351° |
| 2026-05-04 06:31 | -30.60819 | 137.18601 | 6449 ft | 286 kts | 351° |
| 2026-05-04 06:31 | -30.58849 | 137.18339 | 6057 ft | 283 kts | 351° |
| 2026-05-04 06:32 | -30.56899 | 137.18080 | 5709 ft | 280 kts | 351° |
| 2026-05-04 06:33 | -30.44511 | 137.14832 | 3179 ft | 245 kts | 292° |
| 2026-05-04 06:34 | -30.44029 | 137.13041 | 2906 ft | 222 kts | 279° |
| 2026-05-04 06:34 | -30.43661 | 137.11355 | 2601 ft | 216 kts | 282° |
| 2026-05-04 06:34 | -30.43261 | 137.09706 | 2337 ft | 208 kts | 282° |
| 2026-05-04 06:34 | -30.42868 | 137.08130 | 2164 ft | 197 kts | 282° |
| 2026-05-04 06:35 | -30.42680 | 137.06628 | 2037 ft | 181 kts | 262° |
| 2026-05-04 06:36 | -30.45035 | 136.98606 | 1802 ft | 142 kts | 248° |
| 2026-05-04 06:37 | -30.45357 | 136.97541 | 1786 ft | 135 kts | 249° |
| 2026-05-04 06:37 | -30.45675 | 136.96505 | 1687 ft | 139 kts | 248° |
| 2026-05-04 06:37 | -30.46010 | 136.95421 | 1544 ft | 144 kts | 247° |
| 2026-05-04 06:37 | -30.46345 | 136.94337 | 1342 ft | 143 kts | 248° |
| 2026-05-04 06:38 | -30.46674 | 136.93265 | 1197 ft | 140 kts | 247° |
| 2026-05-04 06:38 | -30.47013 | 136.92174 | 972 ft | 148 kts | 248° |
| 2026-05-04 06:40 | -30.48696 | 136.86719 | 349 ft | 9 kts | 256° |
| 2026-05-04 06:40 | -30.48681 | 136.86718 | 347 ft | 3 kts | 29° |
| 2026-05-04 06:40 | -30.48660 | 136.86772 | 352 ft | 12 kts | 71° |
| 2026-05-04 06:40 | -30.48622 | 136.86895 | 345 ft | 20 kts | 71° |
| 2026-05-04 06:41 | -30.48570 | 136.87068 | 350 ft | 26 kts | 71° |
| 2026-05-04 06:41 | -30.48503 | 136.87287 | 339 ft | 30 kts | 70° |
| 2026-05-04 06:41 | -30.48432 | 136.87518 | 351 ft | 31 kts | 71° |
| 2026-05-04 06:41 | -30.48360 | 136.87751 | 353 ft | 30 kts | 70° |
| 2026-05-04 06:42 | -30.48288 | 136.87987 | 347 ft | 32 kts | 71° |
| 2026-05-04 06:42 | -30.48226 | 136.88188 | 344 ft | 14 kts | 69° |
| 2026-05-04 06:42 | -30.48223 | 136.88290 | 350 ft | 12 kts | 150° |
| 2026-05-04 06:44 | -30.48367 | 136.88343 | 346 ft | 0 kts | 160° |